sensor_id;sensor_type;location;lat;lon;timestamp;pressure;altitude;pressure_sealevel;temperature;humidity
64711;BME280;51139;45.626;6.850;2023-02-04T00:01:21;82842.44;;;-2.02;44.22
64711;BME280;51139;45.626;6.850;2023-02-04T00:03:47;82851.75;;;-2.16;44.07
64711;BME280;51139;45.626;6.850;2023-02-04T00:06:12;82838.09;;;-2.11;44.63
64711;BME280;51139;45.626;6.850;2023-02-04T00:08:37;82845.28;;;-2.00;43.79
64711;BME280;51139;45.626;6.850;2023-02-04T00:11:03;82845.81;;;-1.96;42.59
64711;BME280;51139;45.626;6.850;2023-02-04T00:13:29;82832.16;;;-1.91;42.36
64711;BME280;51139;45.626;6.850;2023-02-04T00:15:54;82836.53;;;-2.03;43.42
64711;BME280;51139;45.626;6.850;2023-02-04T00:18:20;82822.06;;;-2.10;43.22
64711;BME280;51139;45.626;6.850;2023-02-04T00:20:45;82825.94;;;-1.99;44.05
64711;BME280;51139;45.626;6.850;2023-02-04T00:23:10;82832.09;;;-1.70;40.77
64711;BME280;51139;45.626;6.850;2023-02-04T00:25:36;82826.91;;;-1.70;41.74
64711;BME280;51139;45.626;6.850;2023-02-04T00:28:01;82822.47;;;-1.91;42.98
64711;BME280;51139;45.626;6.850;2023-02-04T00:30:28;82830.09;;;-1.81;43.30
64711;BME280;51139;45.626;6.850;2023-02-04T00:32:55;82825.13;;;-1.85;42.33
64711;BME280;51139;45.626;6.850;2023-02-04T00:35:22;82818.41;;;-1.71;41.38
64711;BME280;51139;45.626;6.850;2023-02-04T00:37:48;82822.38;;;-2.02;43.01
64711;BME280;51139;45.626;6.850;2023-02-04T00:40:13;82828.38;;;-2.16;44.33
64711;BME280;51139;45.626;6.850;2023-02-04T00:42:39;82821.44;;;-2.25;43.09
64711;BME280;51139;45.626;6.850;2023-02-04T00:45:05;82815.97;;;-2.07;43.40
64711;BME280;51139;45.626;6.850;2023-02-04T00:47:30;82811.53;;;-2.00;43.73
64711;BME280;51139;45.626;6.850;2023-02-04T00:49:55;82811.00;;;-2.31;44.21
64711;BME280;51139;45.626;6.850;2023-02-04T00:52:21;82817.38;;;-2.32;43.91
64711;BME280;51139;45.626;6.850;2023-02-04T00:54:46;82818.72;;;-2.37;44.40
64711;BME280;51139;45.626;6.850;2023-02-04T00:57:12;82812.44;;;-2.30;44.15
64711;BME280;51139;45.626;6.850;2023-02-04T00:59:37;82815.47;;;-2.11;44.30
64711;BME280;51139;45.626;6.850;2023-02-04T01:02:02;82810.47;;;-1.88;43.71
64711;BME280;51139;45.626;6.850;2023-02-04T01:04:28;82808.59;;;-2.14;43.42
64711;BME280;51139;45.626;6.850;2023-02-04T01:06:54;82819.84;;;-2.43;44.86
64711;BME280;51139;45.626;6.850;2023-02-04T01:09:19;82824.06;;;-2.46;45.35
64711;BME280;51139;45.626;6.850;2023-02-04T01:11:45;82821.97;;;-2.42;44.99
64711;BME280;51139;45.626;6.850;2023-02-04T01:14:11;82817.16;;;-2.28;44.34
64711;BME280;51139;45.626;6.850;2023-02-04T01:16:36;82818.88;;;-2.46;44.72
64711;BME280;51139;45.626;6.850;2023-02-04T01:19:01;82821.59;;;-2.35;43.90
64711;BME280;51139;45.626;6.850;2023-02-04T01:21:27;82820.03;;;-2.47;44.12
64711;BME280;51139;45.626;6.850;2023-02-04T01:23:52;82823.66;;;-2.39;42.64
64711;BME280;51139;45.626;6.850;2023-02-04T01:26:18;82814.16;;;-2.21;43.06
64711;BME280;51139;45.626;6.850;2023-02-04T01:28:44;82835.44;;;-2.43;44.18
64711;BME280;51139;45.626;6.850;2023-02-04T01:31:10;82816.59;;;-2.38;43.46
64711;BME280;51139;45.626;6.850;2023-02-04T01:33:35;82807.78;;;-1.67;40.41
64711;BME280;51139;45.626;6.850;2023-02-04T01:36:00;82803.78;;;-1.95;42.64
64711;BME280;51139;45.626;6.850;2023-02-04T01:38:26;82801.31;;;-2.10;42.21
64711;BME280;51139;45.626;6.850;2023-02-04T01:40:51;82800.88;;;-2.29;43.99
64711;BME280;51139;45.626;6.850;2023-02-04T01:43:18;82801.19;;;-2.21;43.86
64711;BME280;51139;45.626;6.850;2023-02-04T01:45:47;82803.50;;;-2.02;43.19
64711;BME280;51139;45.626;6.850;2023-02-04T01:48:13;82791.25;;;-2.23;42.43
64711;BME280;51139;45.626;6.850;2023-02-04T01:50:48;82800.94;;;-2.23;43.60
64711;BME280;51139;45.626;6.850;2023-02-04T01:53:15;82799.97;;;-2.26;44.39
64711;BME280;51139;45.626;6.850;2023-02-04T01:55:42;82791.59;;;-2.15;42.60
64711;BME280;51139;45.626;6.850;2023-02-04T01:58:09;82795.78;;;-2.44;43.84
64711;BME280;51139;45.626;6.850;2023-02-04T02:00:36;82811.47;;;-2.32;43.14
64711;BME280;51139;45.626;6.850;2023-02-04T02:03:03;82790.34;;;-2.46;43.95
64711;BME280;51139;45.626;6.850;2023-02-04T02:05:52;82794.97;;;-2.29;43.57
64711;BME280;51139;45.626;6.850;2023-02-04T02:08:19;82791.88;;;-2.33;42.90
64711;BME280;51139;45.626;6.850;2023-02-04T02:10:46;82797.81;;;-2.27;43.49
64711;BME280;51139;45.626;6.850;2023-02-04T02:13:16;82791.97;;;-2.48;43.88
64711;BME280;51139;45.626;6.850;2023-02-04T02:15:42;82795.78;;;-2.44;43.93
64711;BME280;51139;45.626;6.850;2023-02-04T02:18:08;82781.09;;;-2.53;44.25
64711;BME280;51139;45.626;6.850;2023-02-04T02:20:34;82780.06;;;-2.35;44.30
64711;BME280;51139;45.626;6.850;2023-02-04T02:25:45;82771.81;;;-2.59;44.26
64711;BME280;51139;45.626;6.850;2023-02-04T02:28:17;82782.66;;;-2.61;43.80
64711;BME280;51139;45.626;6.850;2023-02-04T02:30:44;82771.31;;;-2.37;43.19
64711;BME280;51139;45.626;6.850;2023-02-04T02:33:11;82764.75;;;-2.32;42.60
64711;BME280;51139;45.626;6.850;2023-02-04T02:35:39;82762.84;;;-2.58;43.17
64711;BME280;51139;45.626;6.850;2023-02-04T02:38:10;82767.69;;;-2.45;43.18
64711;BME280;51139;45.626;6.850;2023-02-04T02:40:36;82768.63;;;-2.48;42.20
64711;BME280;51139;45.626;6.850;2023-02-04T02:43:03;82752.53;;;-2.53;44.19
64711;BME280;51139;45.626;6.850;2023-02-04T02:45:30;82743.88;;;-2.44;44.45
64711;BME280;51139;45.626;6.850;2023-02-04T02:47:58;82759.03;;;-2.37;43.36
64711;BME280;51139;45.626;6.850;2023-02-04T02:50:26;82756.59;;;-2.46;44.12
64711;BME280;51139;45.626;6.850;2023-02-04T02:52:53;82757.78;;;-2.47;44.35
64711;BME280;51139;45.626;6.850;2023-02-04T02:55:22;82754.00;;;-2.46;42.69
64711;BME280;51139;45.626;6.850;2023-02-04T02:57:50;82747.44;;;-2.41;43.36
64711;BME280;51139;45.626;6.850;2023-02-04T03:00:24;82750.50;;;-2.43;43.38
64711;BME280;51139;45.626;6.850;2023-02-04T03:03:18;82740.13;;;-2.43;42.97
64711;BME280;51139;45.626;6.850;2023-02-04T03:05:44;82751.50;;;-2.35;43.40
64711;BME280;51139;45.626;6.850;2023-02-04T03:08:12;82753.41;;;-2.09;42.86
64711;BME280;51139;45.626;6.850;2023-02-04T03:10:39;82758.59;;;-2.35;43.06
64711;BME280;51139;45.626;6.850;2023-02-04T03:13:05;82748.22;;;-2.35;43.39
64711;BME280;51139;45.626;6.850;2023-02-04T03:15:30;82734.56;;;-2.56;44.26
64711;BME280;51139;45.626;6.850;2023-02-04T03:17:56;82736.25;;;-2.53;44.12
64711;BME280;51139;45.626;6.850;2023-02-04T03:20:24;82740.38;;;-2.14;43.28
64711;BME280;51139;45.626;6.850;2023-02-04T03:22:51;82743.78;;;-2.29;43.46
64711;BME280;51139;45.626;6.850;2023-02-04T03:25:17;82732.75;;;-2.24;41.38
64711;BME280;51139;45.626;6.850;2023-02-04T03:27:45;82748.72;;;-2.31;42.12
64711;BME280;51139;45.626;6.850;2023-02-04T03:30:11;82743.53;;;-2.31;42.44
64711;BME280;51139;45.626;6.850;2023-02-04T03:32:36;82734.25;;;-2.11;42.58
64711;BME280;51139;45.626;6.850;2023-02-04T03:35:02;82742.66;;;-2.22;42.24
64711;BME280;51139;45.626;6.850;2023-02-04T03:37:28;82740.53;;;-2.24;41.05
64711;BME280;51139;45.626;6.850;2023-02-04T03:39:53;82743.19;;;-2.18;41.47
64711;BME280;51139;45.626;6.850;2023-02-04T03:42:18;82746.63;;;-2.27;42.88
64711;BME280;51139;45.626;6.850;2023-02-04T03:44:44;82728.97;;;-2.23;42.31
64711;BME280;51139;45.626;6.850;2023-02-04T03:47:09;82744.59;;;-2.43;43.42
64711;BME280;51139;45.626;6.850;2023-02-04T03:49:34;82730.44;;;-2.16;41.25
64711;BME280;51139;45.626;6.850;2023-02-04T03:52:01;82721.59;;;-2.30;43.23
64711;BME280;51139;45.626;6.850;2023-02-04T03:54:26;82730.72;;;-2.14;42.44
64711;BME280;51139;45.626;6.850;2023-02-04T03:56:52;82729.03;;;-2.17;42.92
64711;BME280;51139;45.626;6.850;2023-02-04T03:59:17;82731.88;;;-2.15;42.79
64711;BME280;51139;45.626;6.850;2023-02-04T04:01:42;82728.38;;;-2.12;40.85
64711;BME280;51139;45.626;6.850;2023-02-04T04:04:08;82723.44;;;-2.04;41.77
64711;BME280;51139;45.626;6.850;2023-02-04T04:06:33;82721.09;;;-2.02;42.49
64711;BME280;51139;45.626;6.850;2023-02-04T04:08:58;82726.47;;;-2.11;42.99
64711;BME280;51139;45.626;6.850;2023-02-04T04:11:24;82730.22;;;-2.12;42.48
64711;BME280;51139;45.626;6.850;2023-02-04T04:13:49;82728.38;;;-2.06;42.76
64711;BME280;51139;45.626;6.850;2023-02-04T04:16:15;82732.31;;;-2.16;42.93
64711;BME280;51139;45.626;6.850;2023-02-04T04:18:40;82738.53;;;-1.76;39.19
64711;BME280;51139;45.626;6.850;2023-02-04T04:21:05;82730.94;;;-1.80;40.80
64711;BME280;51139;45.626;6.850;2023-02-04T04:23:31;82737.44;;;-1.96;42.38
64711;BME280;51139;45.626;6.850;2023-02-04T04:25:56;82740.19;;;-2.05;41.69
64711;BME280;51139;45.626;6.850;2023-02-04T04:28:21;82737.88;;;-2.29;42.89
64711;BME280;51139;45.626;6.850;2023-02-04T04:30:47;82731.25;;;-2.30;42.51
64711;BME280;51139;45.626;6.850;2023-02-04T04:33:12;82731.50;;;-2.28;44.05
64711;BME280;51139;45.626;6.850;2023-02-04T04:35:38;82739.59;;;-2.47;43.72
64711;BME280;51139;45.626;6.850;2023-02-04T04:38:03;82731.22;;;-2.36;43.51
64711;BME280;51139;45.626;6.850;2023-02-04T04:40:28;82738.88;;;-2.21;43.52
64711;BME280;51139;45.626;6.850;2023-02-04T04:42:54;82732.69;;;-2.29;43.64
64711;BME280;51139;45.626;6.850;2023-02-04T04:45:20;82742.25;;;-2.41;44.28
64711;BME280;51139;45.626;6.850;2023-02-04T04:47:45;82730.00;;;-2.41;44.68
64711;BME280;51139;45.626;6.850;2023-02-04T04:50:11;82728.56;;;-2.42;44.27
64711;BME280;51139;45.626;6.850;2023-02-04T04:52:37;82738.19;;;-2.48;44.89
64711;BME280;51139;45.626;6.850;2023-02-04T04:55:02;82731.97;;;-2.56;44.96
64711;BME280;51139;45.626;6.850;2023-02-04T04:57:28;82743.94;;;-2.38;44.46
64711;BME280;51139;45.626;6.850;2023-02-04T04:59:53;82733.91;;;-2.51;44.96
64711;BME280;51139;45.626;6.850;2023-02-04T05:02:19;82739.69;;;-2.36;44.83
64711;BME280;51139;45.626;6.850;2023-02-04T05:04:44;82729.88;;;-2.26;43.93
64711;BME280;51139;45.626;6.850;2023-02-04T05:07:10;82746.72;;;-1.83;42.83
64711;BME280;51139;45.626;6.850;2023-02-04T05:09:35;82740.94;;;-2.04;42.66
64711;BME280;51139;45.626;6.850;2023-02-04T05:12:00;82730.91;;;-2.17;43.07
64711;BME280;51139;45.626;6.850;2023-02-04T05:14:27;82725.09;;;-2.07;42.62
64711;BME280;51139;45.626;6.850;2023-02-04T05:16:52;82733.19;;;-2.25;43.08
64711;BME280;51139;45.626;6.850;2023-02-04T05:19:18;82729.22;;;-2.47;44.46
64711;BME280;51139;45.626;6.850;2023-02-04T05:21:43;82721.66;;;-2.51;45.08
64711;BME280;51139;45.626;6.850;2023-02-04T05:24:08;82726.88;;;-2.45;44.95
64711;BME280;51139;45.626;6.850;2023-02-04T05:26:34;82724.78;;;-2.41;44.65
64711;BME280;51139;45.626;6.850;2023-02-04T05:28:59;82733.25;;;-2.46;44.60
64711;BME280;51139;45.626;6.850;2023-02-04T05:31:25;82721.78;;;-2.07;43.24
64711;BME280;51139;45.626;6.850;2023-02-04T05:33:50;82727.84;;;-2.16;43.67
64711;BME280;51139;45.626;6.850;2023-02-04T05:36:15;82744.34;;;-1.87;43.12
64711;BME280;51139;45.626;6.850;2023-02-04T05:38:42;82719.44;;;-1.73;43.25
64711;BME280;51139;45.626;6.850;2023-02-04T05:41:07;82729.66;;;-1.58;42.04
64711;BME280;51139;45.626;6.850;2023-02-04T05:43:33;82729.03;;;-1.41;41.96
64711;BME280;51139;45.626;6.850;2023-02-04T05:45:59;82718.53;;;-1.21;41.26
64711;BME280;51139;45.626;6.850;2023-02-04T05:48:25;82723.50;;;-1.23;42.43
64711;BME280;51139;45.626;6.850;2023-02-04T05:50:50;82736.69;;;-1.32;41.53
64711;BME280;51139;45.626;6.850;2023-02-04T05:53:15;82728.09;;;-1.82;43.51
64711;BME280;51139;45.626;6.850;2023-02-04T05:55:41;82740.50;;;-1.97;43.99
64711;BME280;51139;45.626;6.850;2023-02-04T05:58:06;82738.31;;;-2.04;45.25
64711;BME280;51139;45.626;6.850;2023-02-04T06:00:31;82742.94;;;-2.20;45.34
64711;BME280;51139;45.626;6.850;2023-02-04T06:02:57;82733.81;;;-2.10;45.27
64711;BME280;51139;45.626;6.850;2023-02-04T06:05:22;82735.19;;;-2.41;45.69
64711;BME280;51139;45.626;6.850;2023-02-04T06:07:48;82745.22;;;-2.28;45.80
64711;BME280;51139;45.626;6.850;2023-02-04T06:10:14;82742.88;;;-1.94;45.35
64711;BME280;51139;45.626;6.850;2023-02-04T06:12:39;82751.41;;;-2.20;45.81
64711;BME280;51139;45.626;6.850;2023-02-04T06:15:05;82753.91;;;-2.31;46.50
64711;BME280;51139;45.626;6.850;2023-02-04T06:17:30;82746.13;;;-2.31;47.16
64711;BME280;51139;45.626;6.850;2023-02-04T06:19:56;82760.63;;;-2.45;47.73
64711;BME280;51139;45.626;6.850;2023-02-04T06:22:21;82763.94;;;-2.44;47.69
64711;BME280;51139;45.626;6.850;2023-02-04T06:24:48;82744.28;;;-2.25;46.02
64711;BME280;51139;45.626;6.850;2023-02-04T06:27:14;82762.53;;;-2.19;45.59
64711;BME280;51139;45.626;6.850;2023-02-04T06:29:47;82752.94;;;-2.33;46.44
64711;BME280;51139;45.626;6.850;2023-02-04T06:32:13;82751.22;;;-2.42;46.89
64711;BME280;51139;45.626;6.850;2023-02-04T06:34:39;82763.44;;;-2.48;46.64
64711;BME280;51139;45.626;6.850;2023-02-04T06:37:04;82760.06;;;-2.55;46.95
64711;BME280;51139;45.626;6.850;2023-02-04T06:39:29;82771.41;;;-2.52;47.38
64711;BME280;51139;45.626;6.850;2023-02-04T06:41:55;82767.31;;;-2.38;47.27
64711;BME280;51139;45.626;6.850;2023-02-04T06:44:20;82770.81;;;-2.41;47.11
64711;BME280;51139;45.626;6.850;2023-02-04T06:46:46;82770.03;;;-2.21;45.78
64711;BME280;51139;45.626;6.850;2023-02-04T06:49:11;82775.97;;;-2.68;47.83
64711;BME280;51139;45.626;6.850;2023-02-04T06:51:36;82774.59;;;-2.63;47.47
64711;BME280;51139;45.626;6.850;2023-02-04T06:54:02;82775.13;;;-2.59;47.78
64711;BME280;51139;45.626;6.850;2023-02-04T06:56:27;82771.81;;;-2.59;48.76
64711;BME280;51139;45.626;6.850;2023-02-04T06:58:53;82762.03;;;-2.44;48.39
64711;BME280;51139;45.626;6.850;2023-02-04T07:01:19;82768.28;;;-2.56;48.05
64711;BME280;51139;45.626;6.850;2023-02-04T07:03:44;82775.56;;;-2.60;48.94
64711;BME280;51139;45.626;6.850;2023-02-04T07:06:09;82785.75;;;-2.57;49.82
64711;BME280;51139;45.626;6.850;2023-02-04T07:08:35;82782.91;;;-2.59;49.05
64711;BME280;51139;45.626;6.850;2023-02-04T07:11:00;82779.41;;;-2.29;48.64
64711;BME280;51139;45.626;6.850;2023-02-04T07:13:26;82790.91;;;-2.36;49.52
64711;BME280;51139;45.626;6.850;2023-02-04T07:15:51;82775.88;;;-2.26;48.53
64711;BME280;51139;45.626;6.850;2023-02-04T07:18:17;82781.94;;;-2.35;49.12
64711;BME280;51139;45.626;6.850;2023-02-04T07:20:44;82789.13;;;-2.51;50.41
64711;BME280;51139;45.626;6.850;2023-02-04T07:23:09;82783.78;;;-2.15;48.52
64711;BME280;51139;45.626;6.850;2023-02-04T07:25:35;82778.09;;;-2.19;49.38
64711;BME280;51139;45.626;6.850;2023-02-04T07:28:00;82781.72;;;-2.11;48.48
64711;BME280;51139;45.626;6.850;2023-02-04T07:30:28;82784.56;;;-2.09;48.52
64711;BME280;51139;45.626;6.850;2023-02-04T07:32:53;82786.22;;;-2.06;48.21
64711;BME280;51139;45.626;6.850;2023-02-04T07:35:19;82775.31;;;-1.83;46.93
64711;BME280;51139;45.626;6.850;2023-02-04T07:37:44;82790.13;;;-1.89;48.94
64711;BME280;51139;45.626;6.850;2023-02-04T07:40:11;82789.09;;;-1.71;49.63
64711;BME280;51139;45.626;6.850;2023-02-04T07:42:36;82783.97;;;-1.60;48.48
64711;BME280;51139;45.626;6.850;2023-02-04T07:45:02;82783.09;;;-1.13;46.30
64711;BME280;51139;45.626;6.850;2023-02-04T07:47:28;82782.31;;;-0.82;45.06
64711;BME280;51139;45.626;6.850;2023-02-04T07:49:53;82797.13;;;-0.99;47.15
64711;BME280;51139;45.626;6.850;2023-02-04T07:52:22;82793.66;;;-0.85;47.33
64711;BME280;51139;45.626;6.850;2023-02-04T07:54:47;82801.31;;;-1.08;47.54
64711;BME280;51139;45.626;6.850;2023-02-04T07:57:13;82804.69;;;-0.47;46.26
64711;BME280;51139;45.626;6.850;2023-02-04T07:59:39;82797.94;;;-0.76;46.33
64711;BME280;51139;45.626;6.850;2023-02-04T08:02:04;82805.47;;;-0.35;44.86
64711;BME280;51139;45.626;6.850;2023-02-04T08:04:29;82805.00;;;-0.27;45.16
64711;BME280;51139;45.626;6.850;2023-02-04T08:06:55;82799.91;;;0.24;42.71
64711;BME280;51139;45.626;6.850;2023-02-04T08:09:20;82812.09;;;-0.34;46.52
64711;BME280;51139;45.626;6.850;2023-02-04T08:11:46;82811.19;;;-0.13;44.32
64711;BME280;51139;45.626;6.850;2023-02-04T08:14:11;82801.34;;;0.59;40.95
64711;BME280;51139;45.626;6.850;2023-02-04T08:16:37;82811.09;;;0.47;44.11
64711;BME280;51139;45.626;6.850;2023-02-04T08:19:03;82821.03;;;1.06;40.13
64711;BME280;51139;45.626;6.850;2023-02-04T08:21:28;82810.63;;;0.66;38.85
64711;BME280;51139;45.626;6.850;2023-02-04T08:23:53;82812.97;;;0.64;37.63
64711;BME280;51139;45.626;6.850;2023-02-04T08:26:19;82803.97;;;0.65;37.78
64711;BME280;51139;45.626;6.850;2023-02-04T08:28:44;82809.13;;;1.22;36.48
64711;BME280;51139;45.626;6.850;2023-02-04T08:31:10;82808.34;;;1.55;36.50
64711;BME280;51139;45.626;6.850;2023-02-04T08:33:38;82807.06;;;1.91;35.47
64711;BME280;51139;45.626;6.850;2023-02-04T08:36:07;82810.69;;;3.02;34.06
64711;BME280;51139;45.626;6.850;2023-02-04T08:38:33;82807.38;;;3.32;33.85
64711;BME280;51139;45.626;6.850;2023-02-04T08:40:58;82815.97;;;4.26;34.16
64711;BME280;51139;45.626;6.850;2023-02-04T08:43:26;82813.16;;;3.99;34.50
64711;BME280;51139;45.626;6.850;2023-02-04T08:45:52;82811.81;;;4.56;33.45
64711;BME280;51139;45.626;6.850;2023-02-04T08:48:17;82821.63;;;5.86;32.30
64711;BME280;51139;45.626;6.850;2023-02-04T08:50:42;82813.47;;;5.24;30.02
64711;BME280;51139;45.626;6.850;2023-02-04T08:53:08;82819.56;;;5.00;31.87
64711;BME280;51139;45.626;6.850;2023-02-04T08:55:33;82823.69;;;4.76;32.42
64711;BME280;51139;45.626;6.850;2023-02-04T08:57:59;82818.31;;;4.87;33.34
64711;BME280;51139;45.626;6.850;2023-02-04T09:00:26;82821.56;;;4.74;33.52
64711;BME280;51139;45.626;6.850;2023-02-04T09:02:51;82827.78;;;5.42;33.41
64711;BME280;51139;45.626;6.850;2023-02-04T09:05:17;82832.13;;;5.86;33.13
64711;BME280;51139;45.626;6.850;2023-02-04T09:07:42;82834.09;;;6.52;32.72
64711;BME280;51139;45.626;6.850;2023-02-04T09:10:08;82824.72;;;6.92;29.12
64711;BME280;51139;45.626;6.850;2023-02-04T09:12:33;82833.19;;;6.09;31.94
64711;BME280;51139;45.626;6.850;2023-02-04T09:14:59;82832.38;;;6.68;30.55
64711;BME280;51139;45.626;6.850;2023-02-04T09:17:24;82836.81;;;6.33;30.94
64711;BME280;51139;45.626;6.850;2023-02-04T09:19:49;82844.50;;;6.04;34.14
64711;BME280;51139;45.626;6.850;2023-02-04T09:22:15;82840.38;;;6.22;33.23
64711;BME280;51139;45.626;6.850;2023-02-04T09:24:40;82845.72;;;6.30;31.48
64711;BME280;51139;45.626;6.850;2023-02-04T09:27:05;82848.38;;;6.17;32.93
64711;BME280;51139;45.626;6.850;2023-02-04T09:29:31;82842.09;;;6.33;34.80
64711;BME280;51139;45.626;6.850;2023-02-04T09:31:56;82844.75;;;7.08;32.48
64711;BME280;51139;45.626;6.850;2023-02-04T09:34:22;82834.19;;;8.57;26.55
64711;BME280;51139;45.626;6.850;2023-02-04T09:36:48;82828.59;;;9.65;25.20
64711;BME280;51139;45.626;6.850;2023-02-04T09:39:13;82832.84;;;9.76;25.04
64711;BME280;51139;45.626;6.850;2023-02-04T09:41:39;82840.34;;;8.30;28.78
64711;BME280;51139;45.626;6.850;2023-02-04T09:44:11;82835.97;;;9.59;25.11
64711;BME280;51139;45.626;6.850;2023-02-04T09:46:38;82840.78;;;9.91;25.63
64711;BME280;51139;45.626;6.850;2023-02-04T09:49:05;82854.59;;;10.21;25.47
64711;BME280;51139;45.626;6.850;2023-02-04T09:51:34;82838.69;;;10.36;25.86
64711;BME280;51139;45.626;6.850;2023-02-04T09:54:11;82843.44;;;9.76;27.40
64711;BME280;51139;45.626;6.850;2023-02-04T09:56:37;82848.16;;;9.02;29.39
64711;BME280;51139;45.626;6.850;2023-02-04T09:59:05;82844.09;;;9.09;29.25
64711;BME280;51139;45.626;6.850;2023-02-04T10:01:35;82853.78;;;9.58;26.84
64711;BME280;51139;45.626;6.850;2023-02-04T10:04:01;82855.41;;;11.65;24.75
64711;BME280;51139;45.626;6.850;2023-02-04T10:06:26;82851.09;;;12.19;24.35
64711;BME280;51139;45.626;6.850;2023-02-04T10:08:52;82850.31;;;9.79;29.13
64711;BME280;51139;45.626;6.850;2023-02-04T10:11:20;82852.75;;;9.09;30.81
64711;BME280;51139;45.626;6.850;2023-02-04T10:13:48;82860.91;;;8.32;31.95
64711;BME280;51139;45.626;6.850;2023-02-04T10:16:17;82859.44;;;7.38;34.04
64711;BME280;51139;45.626;6.850;2023-02-04T10:18:44;82873.63;;;7.70;33.25
64711;BME280;51139;45.626;6.850;2023-02-04T10:21:22;82874.03;;;7.95;30.54
64711;BME280;51139;45.626;6.850;2023-02-04T10:23:53;82869.00;;;7.84;28.50
64711;BME280;51139;45.626;6.850;2023-02-04T10:26:20;82868.72;;;7.18;33.38
64711;BME280;51139;45.626;6.850;2023-02-04T10:28:46;82873.78;;;6.41;34.43
64711;BME280;51139;45.626;6.850;2023-02-04T10:31:36;82871.91;;;6.90;34.97
64711;BME280;51139;45.626;6.850;2023-02-04T10:36:40;82863.34;;;7.58;33.07
64711;BME280;51139;45.626;6.850;2023-02-04T10:39:18;82860.03;;;7.10;30.56
64711;BME280;51139;45.626;6.850;2023-02-04T10:41:48;82863.22;;;7.29;32.11
64711;BME280;51139;45.626;6.850;2023-02-04T10:44:17;82860.94;;;7.12;32.20
64711;BME280;51139;45.626;6.850;2023-02-04T10:46:43;82856.47;;;7.42;31.52
64711;BME280;51139;45.626;6.850;2023-02-04T10:49:18;82852.72;;;7.16;33.52
64711;BME280;51139;45.626;6.850;2023-02-04T10:51:44;82859.28;;;6.07;32.86
64711;BME280;51139;45.626;6.850;2023-02-04T10:54:11;82852.63;;;6.33;32.95
64711;BME280;51139;45.626;6.850;2023-02-04T10:57:18;82853.63;;;7.19;31.34
64711;BME280;51139;45.626;6.850;2023-02-04T10:59:47;82849.66;;;6.64;32.85
64711;BME280;51139;45.626;6.850;2023-02-04T11:04:56;82848.97;;;6.77;31.35
64711;BME280;51139;45.626;6.850;2023-02-04T11:07:22;82850.38;;;6.51;31.46
64711;BME280;51139;45.626;6.850;2023-02-04T11:09:48;82854.44;;;5.33;31.95
64711;BME280;51139;45.626;6.850;2023-02-04T11:12:36;82850.91;;;6.22;30.51
64711;BME280;51139;45.626;6.850;2023-02-04T11:15:03;82843.31;;;6.05;33.84
64711;BME280;51139;45.626;6.850;2023-02-04T11:17:30;82837.81;;;5.90;33.56
64711;BME280;51139;45.626;6.850;2023-02-04T11:19:57;82835.63;;;6.21;33.23
64711;BME280;51139;45.626;6.850;2023-02-04T11:25:35;82829.53;;;6.26;35.54
64711;BME280;51139;45.626;6.850;2023-02-04T11:28:25;82835.00;;;6.01;35.67
64711;BME280;51139;45.626;6.850;2023-02-04T11:31:01;82838.00;;;5.92;34.06
64711;BME280;51139;45.626;6.850;2023-02-04T11:33:39;82833.06;;;6.69;35.36
64711;BME280;51139;45.626;6.850;2023-02-04T11:36:08;82831.53;;;6.74;32.96
64711;BME280;51139;45.626;6.850;2023-02-04T11:38:34;82834.47;;;6.03;34.47
64711;BME280;51139;45.626;6.850;2023-02-04T11:41:00;82829.09;;;5.03;35.10
64711;BME280;51139;45.626;6.850;2023-02-04T11:43:26;82830.25;;;5.67;34.97
64711;BME280;51139;45.626;6.850;2023-02-04T11:46:03;82833.28;;;6.57;35.32
64711;BME280;51139;45.626;6.850;2023-02-04T11:48:30;82830.16;;;6.19;33.21
64711;BME280;51139;45.626;6.850;2023-02-04T11:50:58;82836.25;;;5.67;34.72
64711;BME280;51139;45.626;6.850;2023-02-04T11:53:28;82836.13;;;6.33;33.62
64711;BME280;51139;45.626;6.850;2023-02-04T11:55:54;82829.94;;;6.17;34.73
64711;BME280;51139;45.626;6.850;2023-02-04T11:58:20;82829.44;;;6.18;36.67
64711;BME280;51139;45.626;6.850;2023-02-04T12:00:46;82818.03;;;5.56;37.18
64711;BME280;51139;45.626;6.850;2023-02-04T12:03:31;82824.53;;;5.95;34.57
64711;BME280;51139;45.626;6.850;2023-02-04T12:06:00;82817.72;;;5.27;34.89
64711;BME280;51139;45.626;6.850;2023-02-04T12:08:33;82824.81;;;5.00;35.79
64711;BME280;51139;45.626;6.850;2023-02-04T12:11:11;82820.03;;;6.23;35.77
64711;BME280;51139;45.626;6.850;2023-02-04T12:13:47;82816.28;;;6.32;34.41
64711;BME280;51139;45.626;6.850;2023-02-04T12:16:14;82802.19;;;5.75;35.66
64711;BME280;51139;45.626;6.850;2023-02-04T12:18:39;82816.88;;;5.51;35.13
64711;BME280;51139;45.626;6.850;2023-02-04T12:21:05;82805.44;;;5.81;36.00
64711;BME280;51139;45.626;6.850;2023-02-04T12:23:31;82812.03;;;5.55;38.25
64711;BME280;51139;45.626;6.850;2023-02-04T12:25:57;82808.16;;;4.01;39.98
64711;BME280;51139;45.626;6.850;2023-02-04T12:28:22;82801.72;;;4.41;39.76
64711;BME280;51139;45.626;6.850;2023-02-04T12:30:48;82814.47;;;4.88;40.29
64711;BME280;51139;45.626;6.850;2023-02-04T12:33:14;82815.44;;;5.04;37.64
64711;BME280;51139;45.626;6.850;2023-02-04T12:35:39;82805.72;;;4.47;38.27
64711;BME280;51139;45.626;6.850;2023-02-04T12:38:05;82814.56;;;5.48;37.46
64711;BME280;51139;45.626;6.850;2023-02-04T12:40:30;82815.34;;;5.75;36.19
64711;BME280;51139;45.626;6.850;2023-02-04T12:42:56;82808.16;;;5.30;36.43
64711;BME280;51139;45.626;6.850;2023-02-04T12:45:21;82816.16;;;5.05;36.04
64711;BME280;51139;45.626;6.850;2023-02-04T12:47:47;82810.59;;;4.57;37.83
64711;BME280;51139;45.626;6.850;2023-02-04T12:50:15;82813.72;;;4.74;38.08
64711;BME280;51139;45.626;6.850;2023-02-04T12:52:48;82811.00;;;4.42;38.20
64711;BME280;51139;45.626;6.850;2023-02-04T12:55:13;82811.41;;;4.27;40.08
64711;BME280;51139;45.626;6.850;2023-02-04T12:57:38;82811.72;;;4.42;39.57
64711;BME280;51139;45.626;6.850;2023-02-04T13:00:04;82815.94;;;5.03;37.50
64711;BME280;51139;45.626;6.850;2023-02-04T13:02:31;82815.06;;;4.62;37.45
64711;BME280;51139;45.626;6.850;2023-02-04T13:04:56;82804.56;;;5.46;39.39
64711;BME280;51139;45.626;6.850;2023-02-04T13:07:22;82811.56;;;4.73;37.89
64711;BME280;51139;45.626;6.850;2023-02-04T13:09:47;82807.47;;;4.77;38.29
64711;BME280;51139;45.626;6.850;2023-02-04T13:12:14;82806.41;;;4.48;40.06
64711;BME280;51139;45.626;6.850;2023-02-04T13:14:40;82804.41;;;4.54;40.45